createdAt,value
2024-01-24T00:03:46.693Z,9.20
2024-01-24T00:08:54.141Z,8.40
2024-01-24T00:14:01.667Z,8.40
2024-01-24T00:19:09.237Z,8.50
2024-01-24T00:24:16.809Z,7.50
2024-01-24T00:29:24.559Z,7.60
2024-01-24T00:34:32.643Z,8.40
2024-01-24T00:39:41.201Z,8.30
2024-01-24T00:44:52.532Z,8.70
2024-01-24T00:49:59.633Z,8.20
2024-01-24T00:55:08.688Z,8.60
2024-01-24T01:00:18.359Z,9.30
2024-01-24T01:05:26.534Z,7.90
2024-01-24T01:10:33.895Z,9.60
2024-01-24T01:15:41.178Z,9.20
2024-01-24T01:20:48.529Z,9.20
2024-01-24T01:25:56.928Z,9.80
2024-01-24T01:31:04.819Z,8.30
2024-01-24T01:36:18.266Z,7.80
2024-01-24T01:41:32.407Z,10.70
2024-01-24T01:46:41.124Z,9.90
2024-01-24T01:51:49.115Z,9.40
2024-01-24T01:56:57.197Z,10.00
2024-01-24T02:02:06.661Z,8.60
2024-01-24T02:07:14.236Z,9.90
2024-01-24T02:12:22.319Z,9.60
2024-01-24T02:17:30.021Z,10.30
2024-01-24T02:22:37.412Z,9.20
2024-01-24T02:27:47.780Z,8.70
2024-01-24T02:32:55.617Z,8.70
2024-01-24T02:38:03.314Z,7.50
2024-01-24T02:43:11.441Z,8.50
2024-01-24T02:48:19.165Z,6.90
2024-01-24T02:53:26.392Z,6.70
2024-01-24T02:58:33.858Z,6.70
2024-01-24T03:03:43.645Z,6.00
2024-01-24T03:08:53.379Z,4.90
2024-01-24T03:14:00.518Z,6.00
2024-01-24T03:19:08.880Z,5.30
2024-01-24T03:24:16.498Z,5.20
2024-01-24T03:29:25.306Z,4.90
2024-01-24T03:40:14.676Z,4.80
2024-01-24T03:45:23.521Z,3.90
2024-01-24T03:50:30.698Z,4.50
2024-01-24T03:55:38.365Z,4.50
2024-01-24T04:00:45.912Z,4.70
2024-01-24T04:05:53.914Z,4.60
2024-01-24T04:11:01.291Z,4.50
2024-01-24T04:16:10.136Z,4.20
2024-01-24T04:21:17.477Z,3.80
2024-01-24T04:26:25.757Z,3.70
2024-01-24T04:31:33.494Z,4.10
2024-01-24T04:36:40.988Z,4.20
2024-01-24T04:41:50.636Z,3.70
2024-01-24T04:47:01.206Z,4.20
2024-01-24T04:52:09.443Z,4.00
2024-01-24T04:57:17.644Z,2.90
2024-01-24T05:02:25.327Z,2.50
2024-01-24T05:07:32.909Z,3.20
2024-01-24T05:12:40.295Z,2.10
2024-01-24T05:17:47.964Z,3.30
2024-01-24T05:22:55.793Z,3.00
2024-01-24T05:28:06.740Z,3.20
2024-01-24T05:33:14.174Z,3.50
2024-01-24T05:38:21.701Z,3.40
2024-01-24T05:43:29.310Z,3.70
2024-01-24T05:48:36.798Z,3.40
2024-01-24T05:53:45.584Z,3.50
2024-01-24T05:58:52.821Z,3.30
2024-01-24T06:04:00.355Z,3.40
2024-01-24T06:09:07.657Z,3.80
2024-01-24T06:14:15.284Z,3.50
2024-01-24T06:19:22.802Z,3.70
2024-01-24T06:24:33.040Z,2.80
2024-01-24T06:30:16.764Z,2.80
2024-01-24T06:35:13.005Z,7.90
2024-01-24T06:40:21.382Z,2.30
2024-01-24T06:45:29.005Z,2.60
2024-01-24T06:50:36.581Z,2.70
2024-01-24T06:55:45.969Z,3.00
2024-01-24T07:00:54.291Z,2.50
2024-01-24T07:06:02.003Z,2.50
2024-01-24T07:11:09.996Z,2.90
2024-01-24T07:16:18.341Z,2.70
2024-01-24T07:21:26.937Z,2.20
2024-01-24T07:26:36.666Z,2.30
2024-01-24T07:31:45.039Z,2.80
2024-01-24T07:36:52.471Z,3.30
2024-01-24T07:42:00.241Z,3.60
2024-01-24T07:47:07.842Z,3.40
2024-01-24T07:52:25.052Z,2.50
2024-01-24T07:57:39.181Z,2.40
2024-01-24T08:02:47.878Z,2.20
2024-01-24T08:07:58.456Z,2.10
2024-01-24T08:13:08.233Z,2.00
2024-01-24T08:18:17.358Z,1.50
2024-01-24T08:23:31.547Z,1.60
2024-01-24T08:28:46.355Z,2.00
2024-01-24T08:33:53.698Z,1.30
2024-01-24T08:39:01.521Z,1.60
2024-01-24T08:44:08.928Z,1.50
2024-01-24T08:49:16.821Z,1.90
2024-01-24T08:54:24.809Z,1.60
2024-01-24T08:59:33.899Z,1.60
2024-01-24T09:04:45.594Z,1.60
2024-01-24T09:09:54.042Z,1.60
2024-01-24T09:15:01.487Z,1.60
2024-01-24T09:20:18.946Z,1.80
2024-01-24T09:25:27.284Z,1.70
2024-01-24T09:30:34.869Z,1.10
2024-01-24T09:35:43.410Z,1.90
2024-01-24T09:40:51.619Z,1.80
2024-01-24T09:46:03.917Z,1.80
2024-01-24T09:51:13.362Z,1.80
2024-01-24T09:56:21.664Z,1.50
2024-01-24T10:01:33.097Z,1.50
2024-01-24T10:06:42.522Z,4.70
2024-01-24T10:11:49.841Z,1.30
2024-01-24T10:16:58.176Z,1.60
2024-01-24T10:22:09.390Z,1.70
2024-01-24T10:27:18.817Z,1.30
2024-01-24T10:32:26.652Z,1.70
2024-01-24T10:37:37.687Z,1.10
2024-01-24T10:42:47.245Z,1.50
2024-01-24T10:47:55.307Z,1.50
2024-01-24T10:53:04.180Z,1.50
2024-01-24T10:58:13.567Z,2.30
2024-01-24T11:03:21.321Z,1.60
2024-01-24T11:08:40.404Z,1.40
2024-01-24T11:13:56.216Z,1.50
2024-01-24T11:19:23.144Z,1.70
2024-01-24T11:24:51.782Z,2.20
2024-01-24T11:30:02.495Z,1.20
2024-01-24T11:35:44.171Z,1.60
2024-01-24T11:40:55.149Z,3.40
2024-01-24T11:46:10.144Z,1.30
2024-01-24T11:51:19.474Z,1.60
2024-01-24T11:56:27.502Z,2.10
2024-01-24T12:01:35.098Z,2.10
2024-01-24T12:06:43.361Z,1.80
2024-01-24T12:11:50.901Z,2.20
2024-01-24T12:16:58.769Z,2.00
2024-01-24T12:22:10.597Z,1.50
2024-01-24T12:27:18.573Z,2.00
2024-01-24T12:32:26.582Z,2.00
2024-01-24T12:37:34.298Z,1.60
2024-01-24T12:42:42.963Z,1.70
2024-01-24T12:47:50.654Z,1.80
2024-01-24T12:52:58.446Z,2.00
2024-01-24T12:58:08.408Z,1.70
2024-01-24T13:03:20.678Z,1.60
2024-01-24T13:08:30.791Z,1.80
2024-01-24T13:13:40.677Z,2.20
2024-01-24T13:18:48.513Z,2.20
2024-01-24T13:24:03.378Z,1.90
2024-01-24T13:29:10.868Z,2.20
2024-01-24T13:34:20.055Z,2.00
2024-01-24T13:39:27.909Z,2.80
2024-01-24T13:44:36.584Z,1.50
2024-01-24T13:49:46.059Z,2.30
2024-01-24T13:54:54.300Z,2.50
2024-01-24T14:00:01.881Z,1.70
2024-01-24T14:05:12.450Z,1.90
2024-01-24T14:10:20.091Z,2.10
2024-01-24T14:15:34.054Z,2.00
2024-01-24T14:20:45.267Z,2.10
2024-01-24T14:25:52.786Z,2.10
2024-01-24T14:31:00.133Z,2.40
2024-01-24T14:36:11.671Z,2.30
2024-01-24T14:41:19.490Z,2.00
2024-01-24T14:46:27.544Z,1.70
2024-01-24T14:51:34.986Z,1.90
2024-01-24T14:56:45.399Z,2.10
2024-01-24T15:01:58.003Z,2.00
2024-01-24T15:07:05.959Z,1.50
2024-01-24T15:12:14.027Z,1.90
2024-01-24T15:17:21.487Z,2.10
2024-01-24T15:22:28.972Z,1.60
2024-01-24T15:27:36.748Z,1.60
2024-01-24T15:32:44.497Z,2.00
2024-01-24T15:37:52.380Z,2.40
2024-01-24T15:43:01.291Z,1.40
2024-01-24T15:48:09.901Z,2.30
2024-01-24T15:53:17.953Z,2.50
2024-01-24T15:58:25.837Z,2.50
2024-01-24T16:03:35.447Z,2.50
2024-01-24T16:08:42.925Z,2.20
2024-01-24T16:13:53.839Z,2.80
2024-01-24T16:19:01.926Z,3.00
2024-01-24T16:24:10.144Z,2.50
2024-01-24T16:29:17.749Z,3.30
2024-01-24T16:34:25.561Z,3.10
2024-01-24T16:39:33.208Z,2.50
2024-01-24T16:44:40.796Z,4.20
2024-01-24T16:49:48.331Z,4.80
2024-01-24T16:54:56.027Z,5.10
2024-01-24T17:00:04.126Z,4.80
2024-01-24T17:05:12.544Z,4.50
2024-01-24T17:10:20.816Z,4.40
2024-01-24T17:15:28.427Z,4.90
2024-01-24T17:20:35.680Z,4.60
2024-01-24T17:25:43.153Z,4.40
2024-01-24T17:30:53.820Z,5.90
2024-01-24T17:41:25.564Z,4.80
2024-01-24T17:46:33.331Z,5.40
2024-01-24T17:51:41.150Z,6.30
2024-01-24T17:56:48.678Z,4.80
2024-01-24T18:01:57.800Z,5.30
2024-01-24T18:07:06.838Z,5.20
2024-01-24T18:12:14.252Z,4.70
2024-01-24T18:17:22.011Z,4.30
2024-01-24T18:22:29.421Z,4.50
2024-01-24T18:27:37.187Z,5.30
2024-01-24T18:32:46.888Z,5.60
2024-01-24T18:37:54.580Z,3.90
2024-01-24T18:43:03.575Z,4.20
2024-01-24T18:48:12.149Z,4.90
2024-01-24T18:53:19.727Z,4.90
2024-01-24T18:58:30.667Z,4.10
2024-01-24T19:03:38.833Z,4.50
2024-01-24T19:08:47.072Z,4.50
2024-01-24T19:13:54.690Z,5.30
2024-01-24T19:19:06.034Z,5.80
2024-01-24T19:24:14.647Z,3.40
2024-01-24T19:29:23.172Z,5.10
2024-01-24T19:34:31.042Z,4.80
2024-01-24T19:39:38.658Z,4.80
2024-01-24T19:44:46.832Z,9.80
2024-01-24T19:49:54.509Z,3.40
2024-01-24T19:55:04.697Z,4.50
2024-01-24T20:00:14.211Z,4.30
2024-01-24T20:05:21.818Z,3.60
2024-01-24T20:10:29.137Z,4.10
2024-01-24T20:15:37.064Z,4.10
2024-01-24T20:20:45.100Z,4.20
2024-01-24T20:25:52.909Z,3.40
2024-01-24T20:31:00.484Z,3.10
2024-01-24T20:36:11.035Z,2.90
2024-01-24T20:41:18.726Z,3.50
2024-01-24T20:46:26.377Z,4.30
2024-01-24T20:51:34.064Z,3.90
2024-01-24T20:56:41.620Z,3.10
2024-01-24T21:01:49.352Z,3.20
2024-01-24T21:06:57.675Z,2.30
2024-01-24T21:12:08.412Z,3.10
2024-01-24T21:17:15.740Z,3.20
2024-01-24T21:22:23.657Z,3.10
2024-01-24T21:27:32.976Z,3.30
2024-01-24T21:32:40.570Z,2.60
2024-01-24T21:40:35.994Z,3.50
2024-01-24T21:45:43.731Z,3.60
2024-01-24T21:50:51.775Z,2.10
2024-01-24T21:55:59.136Z,3.10
2024-01-24T22:01:07.501Z,3.50
2024-01-24T22:06:16.159Z,3.50
2024-01-24T22:11:24.293Z,3.70
2024-01-24T22:16:31.825Z,2.70
2024-01-24T22:21:43.425Z,2.30
2024-01-24T22:26:52.065Z,3.40
2024-01-24T22:32:00.589Z,2.90
2024-01-24T22:37:08.687Z,4.50
2024-01-24T22:42:16.661Z,2.30
2024-01-24T22:47:23.983Z,3.00
2024-01-24T22:52:31.676Z,3.30
2024-01-24T22:57:39.721Z,3.40
2024-01-24T23:02:47.953Z,2.30
2024-01-24T23:07:55.765Z,2.80
2024-01-24T23:13:03.456Z,2.50
2024-01-24T23:18:11.236Z,2.20
2024-01-24T23:23:18.931Z,2.40
2024-01-24T23:28:26.581Z,1.90
2024-01-24T23:33:36.100Z,2.30
2024-01-24T23:38:44.272Z,1.80
2024-01-24T23:43:52.784Z,2.40
2024-01-24T23:49:00.552Z,1.70
2024-01-24T23:54:10.361Z,2.10
2024-01-24T23:59:17.693Z,2.30
